Newnan, GA

2:11 PM EDT on March 28, 2015 (GMT -0400)
Newnan | | Change Station
CLOSE
Current Station
Personal Weather Station
Location: Newnan, GA
Elevation: 873 ft
Nearby Weather Stations
Active Advisory: Freeze Warning

Elev 873 ft 33.42 °N, 84.81 °W | Updated 5 minutes ago

Clear
Clear
50.7 °F
Feels Like 50.7 °F
N
2.2
Wind Variable Wind from NNE

Today
High -- | Low -- °F
--% Chance of Precip.
Yesterday
High -- | Low -- °F
Precip. -- in
7:32 AM 7:56 PM
Waxing Gibbous, 64% visible
Pressure 30.19 in
Visibility 10.0 miles
Clouds Clear
Dew Point 18 °F
Humidity 27%
Rainfall 0.00 in
Snow Depth Not available.
UV 10 out of 12
Pollen 10.30 out of 12
Air Quality Not available.
Flu Activity Not available.
METAR KFFC 281753Z AUTO 33011G18KT 10SM CLR 10/M10 A3018 RMK AO2 SLP223 T01001100 10100 20022 58000 $

More Conditions Fewer Conditions

Pressure 30.19 in
Visibility 10.0 miles
Clouds Clear
Dew Point 18 °F
Humidity 27%
Rainfall 0.00 in
Snow Depth Not available.
UV 10 out of 12
Pollen 10.30 out of 12
Air Quality Not available.
Flu Activity Not available.
METAR KFFC 281753Z AUTO 33011G18KT 10SM CLR 10/M10 A3018 RMK AO2 SLP223 T01001100 10100 20022 58000 $

More Conditions Fewer Conditions

10-Day Weather Forecast

Almanac

Astronomy

Mar. 28, 2015 Rise Set
Actual Time
Civil Twilight
Nautical Twilight
Astronomical Twilight
Moon
Length of Visible Light
Length of Day
Tomorrow will be .
, % of the Moon is Illuminated

Today's Extremes

State Highs State Lows

Community

WunderPhotos

Upload Photos

1,809,050 photos uploaded!

WunderBlogs® & News

Nearby

Air Quality

  Air Quality AQ Index Pollutant
Not available.

Snow Depth

Station Depth Elevation

Earthquake Activity

City Distance Mag. Time & Date
Minimum magnitude displayed is 2.5.

Coastal Water Temperatures

Place Temperature

Stations

Nearby Weather Stations

Station Location Temp. Windchill Dew Point Humidity Wind Precip. Elev Updated Type
                   
Freeze Warning
Statement as of 11:24 AM EDT on March 28, 2015

... Freeze warning remains in effect from midnight tonight to
10 am EDT Sunday...

* locations... north of a line from Franklin to Fayetteville...
Lawrenceville and Homer for the freeze warning this morning.
North of a line from Hamilton to Macon and Louisville for the
freeze warning Sunday morning.

* Temperatures... lower 30s... except mid to upper 20s in the
mountains this morning. Mid 20s to lower 30s... except low to
mid 20s in the mountains Sunday morning.

* Timing... 2 am to 10 am this morning for the freeze warning.
Midnight to 8 am Sunday morning.

* Impacts... freezing temperatures could damage tender vegetation.

Precautionary/preparedness actions...

A freeze warning means freezing temperatures are forecast to
threaten outdoor plants. Those with agricultural interests in the
warned area are advised to harvest or protect tender vegetation.